TimeCDT,TemperatureF,Dew PointF,Humidity,Sea Level PressureIn,VisibilityMPH,Wind Direction,Wind SpeedMPH,Gust SpeedMPH,PrecipitationIn,Events,Conditions,WindDirDegrees,DateUTC
12:55 AM,62.6,55.4,77,29.99,10.0,NW,3.5,-,N/A,,Clear,320,2012-10-15 05:55:00
1:55 AM,60.8,53.6,77,30.00,10.0,WNW,3.5,-,N/A,,Clear,300,2012-10-15 06:55:00
2:15 AM,59.0,53.6,82,29.99,10.0,NW,4.6,-,N/A,,Clear,320,2012-10-15 07:15:00
2:35 AM,57.2,53.6,88,30.00,10.0,NNW,4.6,-,N/A,,Clear,340,2012-10-15 07:35:00
2:55 AM,57.2,51.8,82,30.00,10.0,NNW,3.5,-,N/A,,Clear,330,2012-10-15 07:55:00
3:15 AM,57.2,53.6,88,30.00,10.0,Calm,Calm,-,N/A,,Clear,0,2012-10-15 08:15:00
3:35 AM,55.4,53.6,94,30.00,10.0,Calm,Calm,-,N/A,,Clear,0,2012-10-15 08:35:00
3:55 AM,55.4,51.8,88,30.00,10.0,Calm,Calm,-,N/A,,Clear,0,2012-10-15 08:55:00
4:55 AM,51.8,51.8,100,30.01,9.0,Calm,Calm,-,N/A,,Clear,0,2012-10-15 09:55:00
5:55 AM,51.8,51.8,100,30.02,10.0,Calm,Calm,-,N/A,,Clear,0,2012-10-15 10:55:00
6:55 AM,50.0,50.0,100,30.04,10.0,Calm,Calm,-,N/A,,Clear,0,2012-10-15 11:55:00
7:55 AM,51.8,51.8,100,30.04,2.0,Calm,Calm,-,N/A,,Clear,0,2012-10-15 12:55:00
8:55 AM,60.8,53.6,77,30.06,10.0,Calm,Calm,-,N/A,,Clear,0,2012-10-15 13:55:00
9:55 AM,66.2,55.4,68,30.07,10.0,Calm,Calm,-,N/A,,Partly Cloudy,0,2012-10-15 14:55:00
10:55 AM,69.8,50.0,49,30.06,10.0,Calm,Calm,-,N/A,,Clear,0,2012-10-15 15:55:00
11:55 AM,71.6,48.2,43,30.06,10.0,Calm,Calm,-,N/A,,Clear,0,2012-10-15 16:55:00
12:55 PM,75.2,48.2,38,30.04,10.0,Variable,4.6,-,N/A,,Partly Cloudy,0,2012-10-15 17:55:00
1:55 PM,75.2,48.2,38,30.01,10.0,NNW,6.9,-,N/A,,Partly Cloudy,330,2012-10-15 18:55:00
2:55 PM,78.8,46.4,32,29.99,10.0,Variable,3.5,-,N/A,,Partly Cloudy,0,2012-10-15 19:55:00
3:55 PM,77.0,48.2,36,29.99,10.0,Variable,3.5,-,N/A,,Partly Cloudy,0,2012-10-15 20:55:00
4:55 PM,77.0,48.2,36,29.97,10.0,Calm,Calm,-,N/A,,Partly Cloudy,0,2012-10-15 21:55:00
5:55 PM,71.6,53.6,53,29.97,10.0,Calm,Calm,-,N/A,,Partly Cloudy,0,2012-10-15 22:55:00
6:55 PM,62.6,51.8,68,29.97,10.0,Calm,Calm,-,N/A,,Partly Cloudy,0,2012-10-15 23:55:00
7:55 PM,59.0,53.6,82,29.98,10.0,East,3.5,-,N/A,,Partly Cloudy,100,2012-10-16 00:55:00
8:55 PM,57.2,51.8,82,29.98,10.0,Calm,Calm,-,N/A,,Clear,0,2012-10-16 01:55:00
9:55 PM,55.4,51.8,88,29.99,10.0,Calm,Calm,-,N/A,,Clear,0,2012-10-16 02:55:00
10:55 PM,53.6,51.8,94,30.00,10.0,Calm,Calm,-,N/A,,Clear,0,2012-10-16 03:55:00
11:55 PM,53.6,51.8,94,30.00,10.0,Calm,Calm,-,N/A,,Clear,0,2012-10-16 04:55:00